Sweetest Thing — WDF9577 — position and weather

sailwx.info

Track history (hours):
 
Tides and Currents Weather Stations Pressure Air Temp Water Temp Dewpoint Dewpoint Depression Visibility Wind Speed Wind Dir Waves Ship Positions

Sweetest Thing

Owner: Thomas Smith Sails, LLC, Harmony, PA. More information available from US FCC via Universal Licensing System and Coast Guard Vessel Documentation Center.

Last reported at 2017-Aug-08 18:12 UTC. Time now 2017-Oct-23 06:28 UTC.
Position N 18°21' W 064°47'.
Warning: this ship's position is months out of date.

Length 15 m.

Type: Sailing vessel. MMSI: 367506610.

Date/timePositionNaut miles runAvg speedWind from/ knotsBaromVisibWave heightAir tempDewpointWater temp
2017-Aug-08 18:12N 18°21' W 064°47'1 0.0
2017-Aug-07 07:44N 18°20' W 064°48'0 0.0
2017-Aug-07 07:08N 18°20' W 064°48'0 0.0
2017-Aug-07 06:56N 18°20' W 064°48'0 0.0
2017-Aug-07 06:26N 18°20' W 064°48'0 0.0
2017-Aug-07 05:44N 18°20' W 064°48'0 0.0
2017-Aug-07 05:20N 18°20' W 064°48'0 0.0
2017-Aug-07 04:02N 18°20' W 064°48'0 0.0
2017-Aug-07 03:44N 18°20' W 064°48'0 0.0
2017-Aug-07 03:26N 18°20' W 064°48'0 0.0
2017-Aug-07 02:50N 18°20' W 064°48'0 0.0
2017-Aug-07 02:26N 18°20' W 064°48'0 0.0
2017-Aug-07 01:50N 18°20' W 064°48'0 0.0
2017-Aug-07 01:20N 18°20' W 064°48'0 0.0
2017-Aug-07 00:14N 18°20' W 064°48'0 0.0
2017-Aug-06 23:02N 18°20' W 064°48'0 1.6
2017-Aug-06 22:58N 18°21' W 064°48'2 1.7
2017-Aug-06 21:38N 18°21' W 064°46'1 4.3
2017-Aug-06 21:28N 18°22' W 064°46'3 5.4
2017-Aug-06 20:49N 18°22' W 064°50'1 1.3
2017-Aug-06 20:14N 18°21' W 064°51'3 0.1
2017-Aug-05 14:23N 18°20' W 064°48'3 0.2
2017-Aug-04 21:27N 18°22' W 064°45'  
Track history (hours):
 
Tides and Currents Weather Stations Pressure Air Temp Water Temp Dewpoint Dewpoint Depression Visibility Wind Speed Wind Dir Waves Ship Positions

Sweetest Thing

Owner: Thomas Smith Sails, LLC, Harmony, PA. More information available from US FCC via Universal Licensing System and Coast Guard Vessel Documentation Center.

Last reported at 2017-Aug-08 18:12 UTC. Time now 2017-Oct-23 06:28 UTC.
Position N 18°21' W 064°47'.
Warning: this ship's position is months out of date.

Length 15 m.

Type: Sailing vessel. MMSI: 367506610.

Date/timePositionNaut miles runAvg speedWind from/ knotsBaromVisibWave heightAir tempDewpointWater temp
2017-Aug-08 18:12N 18°21' W 064°47'1 0.0
2017-Aug-07 07:44N 18°20' W 064°48'0 0.0
2017-Aug-07 07:08N 18°20' W 064°48'0 0.0
2017-Aug-07 06:56N 18°20' W 064°48'0 0.0
2017-Aug-07 06:26N 18°20' W 064°48'0 0.0
2017-Aug-07 05:44N 18°20' W 064°48'0 0.0
2017-Aug-07 05:20N 18°20' W 064°48'0 0.0
2017-Aug-07 04:02N 18°20' W 064°48'0 0.0
2017-Aug-07 03:44N 18°20' W 064°48'0 0.0
2017-Aug-07 03:26N 18°20' W 064°48'0 0.0
2017-Aug-07 02:50N 18°20' W 064°48'0 0.0
2017-Aug-07 02:26N 18°20' W 064°48'0 0.0
2017-Aug-07 01:50N 18°20' W 064°48'0 0.0
2017-Aug-07 01:20N 18°20' W 064°48'0 0.0
2017-Aug-07 00:14N 18°20' W 064°48'0 0.0
2017-Aug-06 23:02N 18°20' W 064°48'0 1.6
2017-Aug-06 22:58N 18°21' W 064°48'2 1.7
2017-Aug-06 21:38N 18°21' W 064°46'1 4.3
2017-Aug-06 21:28N 18°22' W 064°46'3 5.4
2017-Aug-06 20:49N 18°22' W 064°50'1 1.3
2017-Aug-06 20:14N 18°21' W 064°51'3 0.1
2017-Aug-05 14:23N 18°20' W 064°48'3 0.2
2017-Aug-04 21:27N 18°22' W 064°45'  

Dump ship's entire track history